Time;durP1;ratioP1;P1;durP2;ratioP2;P2;SDS_P1;SDS_P2;PMS_P1;PMS_P2;Temp;Humidity;BMP_temperature;BMP_pressure;BME280_temperature;BME280_humidity;BME280_pressure;Samples;Min_cycle;Max_cycle;Signal;HPM_P1;HPM_P2
2021/04/04 00:00:35;;;;;;;0.00;0.00;;;;;;;1.18;75.50;100344.41;1726934;82;21121;-41
2021/04/04 00:03:03;;;;;;;1.55;0.23;;;;;;;1.18;75.71;100344.41;1727272;83;21142;-42
2021/04/04 00:05:30;;;;;;;0.20;0.20;;;;;;;1.21;75.79;100349.38;1727289;83;21174;-43
2021/04/04 00:07:58;;;;;;;0.13;0.08;;;;;;;1.20;75.82;100338.30;1727259;83;21596;-42
2021/04/04 00:10:25;;;;;;;0.10;0.10;;;;;;;1.21;75.92;100346.69;1727159;81;21142;-44
2021/04/04 00:12:53;;;;;;;1.17;1.10;;;;;;;1.21;75.93;100342.66;1727205;83;21493;-42
2021/04/04 00:15:21;;;;;;;0.10;0.10;;;;;;;1.23;75.89;100335.16;1727257;81;21129;-42
2021/04/04 00:17:49;;;;;;;2.20;0.40;;;;;;;1.24;76.04;100340.86;1727205;82;21162;-42
2021/04/04 00:20:17;;;;;;;0.42;0.42;;;;;;;1.25;76.19;100336.29;1727242;81;21134;-42
2021/04/04 00:22:46;;;;;;;0.30;0.30;;;;;;;1.27;76.39;100335.55;1726973;83;21110;-42
2021/04/04 00:25:14;;;;;;;0.10;0.10;;;;;;;1.28;76.61;100335.31;1726984;81;21142;-42
2021/04/04 00:27:42;;;;;;;0.37;0.37;;;;;;;1.28;76.92;100333.97;1727110;83;21574;-42
2021/04/04 00:30:14;;;;;;;0.10;0.10;;;;;;;1.31;77.07;100335.92;1727109;81;21153;-42
2021/04/04 00:32:42;;;;;;;0.35;0.35;;;;;;;1.29;76.87;100334.28;1700463;83;21518;-43
2021/04/04 00:35:15;;;;;;;0.20;0.20;;;;;;;1.29;76.64;100336.98;1726960;81;21441;-42
2021/04/04 00:37:45;;;;;;;1.07;0.65;;;;;;;1.29;76.64;100329.43;1726904;82;21146;-42
2021/04/04 00:40:20;;;;;;;0.10;0.10;;;;;;;1.28;76.82;100332.63;1726923;81;21134;-42
2021/04/04 00:42:48;;;;;;;0.25;0.25;;;;;;;1.28;77.06;100332.63;1699777;83;21533;-42
2021/04/04 00:45:18;;;;;;;0.10;0.10;;;;;;;1.31;77.06;100333.23;1727199;81;21155;-42
2021/04/04 00:47:46;;;;;;;0.10;0.10;;;;;;;1.31;77.00;100335.92;1727030;82;21153;-41
2021/04/04 00:50:15;;;;;;;4.80;0.53;;;;;;;1.32;77.01;100336.24;1727028;81;21126;-42
2021/04/04 00:52:46;;;;;;;0.20;0.20;;;;;;;1.33;77.02;100339.22;1727159;83;21122;-43
2021/04/04 00:55:15;;;;;;;0.40;0.40;;;;;;;1.35;77.10;100338.48;1727283;81;21126;-42
2021/04/04 00:57:42;;;;;;;0.70;0.70;;;;;;;1.35;77.41;100340.64;1727123;83;21442;-42
2021/04/04 01:00:18;;;;;;;0.00;0.00;;;;;;;1.35;77.71;100343.87;1727018;81;21110;-42
2021/04/04 01:02:46;;;;;;;0.57;0.57;;;;;;;1.34;77.88;100336.32;1727255;83;21549;-42
2021/04/04 01:07:56;;;;;;;0.20;0.20;;;;;;;1.36;78.17;100342.81;1847616;76;29139;-42
2021/04/04 01:10:32;;;;;;;0.30;0.30;;;;;;;1.31;78.23;100345.34;1787450;78;21090;-41
2021/04/04 01:13:17;;;;;;;0.00;0.00;;;;;;;1.28;78.30;100346.08;1786167;80;21153;-42
2021/04/04 01:16:11;;;;;;;0.08;0.08;;;;;;;1.26;78.40;100337.92;1786087;80;21249;-42
2021/04/04 01:18:56;;;;;;;0.10;0.10;;;;;;;1.24;78.63;100339.52;1786007;78;21129;-41
2021/04/04 01:21:35;;;;;;;0.53;0.53;;;;;;;1.22;78.76;100334.86;1785857;80;21518;-41
2021/04/04 01:24:42;;;;;;;2.87;0.28;;;;;;;1.19;78.85;100335.31;1786017;78;21413;-42
2021/04/04 01:27:24;;;;;;;0.30;0.30;;;;;;;1.17;78.89;100329.32;1785876;80;21158;-41
2021/04/04 01:29:52;;;;;;;0.10;0.10;;;;;;;1.15;79.01;100324.67;1755965;80;21129;-41
2021/04/04 01:32:22;;;;;;;0.08;0.08;;;;;;;1.13;79.08;100332.67;1731665;80;21532;-41
2021/04/04 01:34:50;;;;;;;0.90;0.50;;;;;;;1.12;79.02;100335.07;1785764;78;21529;-42
2021/04/04 01:37:17;;;;;;;0.10;0.10;;;;;;;1.08;78.99;100330.63;1786080;80;21169;-41
2021/04/04 01:39:51;;;;;;;3.00;0.45;;;;;;;1.08;79.04;100338.70;1755321;80;21588;-41
2021/04/04 01:42:18;;;;;;;1.15;1.15;;;;;;;1.08;79.12;100330.63;1785885;80;20995;-41
2021/04/04 01:44:47;;;;;;;0.20;0.20;;;;;;;1.07;79.21;100334.38;1786111;78;21146;-42
2021/04/04 01:47:15;;;;;;;0.55;0.55;;;;;;;1.07;79.29;100331.69;1756260;80;21182;-43
2021/04/04 01:49:44;;;;;;;0.25;0.25;;;;;;;1.06;79.38;100330.88;1786106;78;21569;-42
2021/04/04 01:52:12;;;;;;;0.30;0.30;;;;;;;1.06;79.50;100335.41;1786057;80;21117;-41
2021/04/04 01:54:39;;;;;;;0.57;0.57;;;;;;;1.06;79.54;100335.41;1756134;80;21509;-41
2021/04/04 01:57:07;;;;;;;0.33;0.33;;;;;;;1.03;79.76;100335.33;1755911;80;21126;-42
2021/04/04 01:59:36;;;;;;;0.72;0.72;;;;;;;1.02;79.85;100340.41;1786192;78;21133;-43
2021/04/04 02:02:04;;;;;;;1.10;0.28;;;;;;;1.01;80.07;100335.24;1786081;80;21155;-43
2021/04/04 02:04:33;;;;;;;0.33;0.33;;;;;;;0.98;80.20;100333.00;1786012;78;21114;-42
2021/04/04 02:07:01;;;;;;;0.30;0.30;;;;;;;0.96;80.28;100331.86;1790471;79;21196;-42
2021/04/04 02:09:28;;;;;;;0.10;0.10;;;;;;;0.97;80.37;100340.78;1717934;79;21189;-42
2021/04/04 02:11:57;;;;;;;0.10;0.10;;;;;;;0.95;80.50;100341.52;1718095;79;21156;-41
2021/04/04 02:14:24;;;;;;;0.20;0.20;;;;;;;0.93;80.62;100344.41;1718072;79;21150;-45
2021/04/04 02:16:54;;;;;;;0.10;0.10;;;;;;;0.94;80.70;100348.77;1794902;79;21102;-44
2021/04/04 02:19:25;;;;;;;0.00;0.00;;;;;;;0.93;80.78;100348.45;1794193;78;21118;-46
2021/04/04 02:21:56;;;;;;;0.15;0.15;;;;;;;0.93;80.90;100352.48;1794381;79;21125;-41
2021/04/04 02:24:26;;;;;;;0.10;0.10;;;;;;;0.93;80.96;100349.80;1794154;78;21113;-44
2021/04/04 02:26:57;;;;;;;1.07;0.28;;;;;;;0.92;81.08;100348.16;1794582;79;21177;-43
2021/04/04 02:29:25;;;;;;;0.15;0.15;;;;;;;0.93;81.16;100355.70;1794376;78;21433;-43
2021/04/04 02:32:00;;;;;;;0.10;0.10;;;;;;;0.94;81.28;100350.61;1794498;79;21176;-46
2021/04/04 02:34:34;;;;;;;7.03;0.50;;;;;;;0.94;81.43;100354.64;1794458;78;21141;-45
2021/04/04 02:37:05;;;;;;;0.45;0.45;;;;;;;0.96;81.65;100354.73;1794150;79;21354;-44
2021/04/04 02:39:37;;;;;;;0.10;0.10;;;;;;;0.98;81.82;100355.34;1794267;78;21141;-45
2021/04/04 02:42:05;;;;;;;0.30;0.30;;;;;;;0.98;81.92;100367.45;1794585;79;21128;-44
2021/04/04 02:44:33;;;;;;;1.00;0.40;;;;;;;0.97;81.95;100360.96;1794399;78;21731;-43
2021/04/04 02:47:04;;;;;;;0.13;0.13;;;;;;;0.97;81.92;100362.30;1766494;79;21078;-44
2021/04/04 02:49:33;;;;;;;0.20;0.20;;;;;;;0.96;81.99;100364.14;1794507;78;21571;-44
2021/04/04 02:52:05;;;;;;;0.42;0.42;;;;;;;0.97;81.99;100365.00;1794450;79;21180;-44
2021/04/04 02:54:33;;;;;;;0.53;0.53;;;;;;;0.96;82.16;100370.05;1794390;78;21177;-44
2021/04/04 02:57:01;;;;;;;0.20;0.20;;;;;;;0.95;82.26;100367.89;1794442;79;21145;-44
2021/04/04 02:59:39;;;;;;;2.77;1.57;;;;;;;0.96;82.35;100372.75;1768268;79;21137;-45
2021/04/04 03:02:07;;;;;;;0.33;0.33;;;;;;;0.96;82.45;100372.75;1792335;79;21113;-44
2021/04/04 03:04:36;;;;;;;0.23;0.23;;;;;;;0.94;82.60;100377.02;1794449;78;21149;-44
2021/04/04 03:07:07;;;;;;;0.50;0.50;;;;;;;0.95;82.54;100368.42;1762560;80;21145;-44
2021/04/04 03:09:35;;;;;;;0.50;0.50;;;;;;;0.94;82.56;100370.30;1785697;78;21169;-45
2021/04/04 03:12:03;;;;;;;1.35;1.25;;;;;;;0.96;82.60;100379.47;1785456;80;21098;-44
2021/04/04 03:14:31;;;;;;;0.88;0.60;;;;;;;0.97;82.68;100379.80;1785414;78;21110;-42
2021/04/04 03:16:58;;;;;;;0.75;0.68;;;;;;;0.99;82.77;100383.06;1705549;80;21134;-42
2021/04/04 03:19:26;;;;;;;0.20;0.20;;;;;;;1.00;82.91;100376.66;1785308;78;21127;-41
2021/04/04 03:21:53;;;;;;;0.60;0.60;;;;;;;1.00;83.08;100376.66;1785487;80;21464;-41
2021/04/04 03:24:21;;;;;;;0.10;0.10;;;;;;;1.01;83.21;100376.95;1754061;80;21114;-41
2021/04/04 03:26:49;;;;;;;0.57;0.55;;;;;;;1.01;83.29;100379.11;1755319;80;21110;-41
2021/04/04 03:29:16;;;;;;;1.10;0.30;;;;;;;1.02;83.29;100376.74;1755279;80;21500;-41
2021/04/04 03:31:44;;;;;;;0.40;0.40;;;;;;;1.03;83.31;100382.95;1753755;80;21987;-41
2021/04/04 03:34:11;;;;;;;0.72;0.72;;;;;;;1.02;83.27;100379.97;1755399;80;21635;-42
2021/04/04 03:36:39;;;;;;;0.05;0.05;;;;;;;1.01;83.29;100383.67;1785296;80;21103;-43
2021/04/04 03:39:07;;;;;;;1.57;0.60;;;;;;;1.02;83.32;100388.86;1785336;79;21118;-44
2021/04/04 03:41:34;;;;;;;2.20;0.60;;;;;;;1.02;83.34;100391.55;1785599;80;21138;-41
2021/04/04 03:44:02;;;;;;;0.13;0.13;;;;;;;1.01;83.46;100387.19;1753839;80;21102;-42
2021/04/04 03:46:34;;;;;;;0.10;0.10;;;;;;;1.00;83.58;100387.42;1785428;80;21137;-43
2021/04/04 03:49:03;;;;;;;0.10;0.10;;;;;;;1.01;83.69;100389.06;1785374;79;21114;-42
2021/04/04 03:51:30;;;;;;;1.02;0.40;;;;;;;1.03;83.79;100384.29;1785235;80;21122;-42
2021/04/04 03:53:59;;;;;;;0.10;0.10;;;;;;;1.06;83.71;100386.53;1785359;78;21113;-42
2021/04/04 03:56:31;;;;;;;0.20;0.20;;;;;;;1.10;83.71;100385.59;1785263;80;21434;-41
2021/04/04 03:59:03;;;;;;;0.10;0.10;;;;;;;1.13;83.78;100383.80;1785381;79;20998;-43
2021/04/04 04:01:32;;;;;;;1.85;0.50;;;;;;;1.16;84.05;100395.47;1785332;80;21635;-41
2021/04/04 04:03:59;;;;;;;0.20;0.20;;;;;;;1.19;84.23;100390.50;1785357;79;21098;-42
2021/04/04 04:06:29;;;;;;;0.10;0.10;;;;;;;1.23;84.27;100397.06;1785724;79;21627;-42
2021/04/04 04:08:57;;;;;;;0.25;0.25;;;;;;;1.27;84.40;100396.13;1794475;78;21436;-42
2021/04/04 04:11:24;;;;;;;0.00;0.00;;;;;;;1.30;84.64;100392.98;1767900;79;21113;-41
2021/04/04 04:13:51;;;;;;;0.15;0.15;;;;;;;1.32;84.76;100394.94;1767594;79;21097;-41
2021/04/04 04:16:19;;;;;;;0.10;0.10;;;;;;;1.37;85.05;100395.10;1766609;79;21129;-41
2021/04/04 04:18:47;;;;;;;0.40;0.40;;;;;;;1.43;85.23;100404.16;1794385;78;21417;-43
2021/04/04 04:21:15;;;;;;;0.20;0.20;;;;;;;1.48;85.31;100400.28;1794338;79;21568;-42
2021/04/04 04:23:43;;;;;;;0.65;0.65;;;;;;;1.54;85.29;100399.95;1794271;78;21592;-42
2021/04/04 04:26:13;;;;;;;0.30;0.30;;;;;;;1.58;85.31;100392.52;1794303;79;21133;-42
2021/04/04 04:28:41;;;;;;;0.13;0.13;;;;;;;1.63;85.38;100392.70;1794348;78;21371;-41
2021/04/04 04:31:11;;;;;;;0.57;0.57;;;;;;;1.70;85.37;100400.70;1794392;79;21141;-41
2021/04/04 04:33:39;;;;;;;0.37;0.37;;;;;;;1.77;85.30;100397.95;1794553;78;21162;-43
2021/04/04 04:36:09;;;;;;;1.67;1.10;;;;;;;1.84;85.25;100396.02;1794511;79;21400;-43
2021/04/04 04:38:39;;;;;;;1.77;1.35;;;;;;;1.91;85.25;100398.95;1794130;78;22017;-41
2021/04/04 04:41:06;;;;;;;0.25;0.25;;;;;;;1.98;85.30;100402.93;1794008;79;21166;-42
2021/04/04 04:43:34;;;;;;;0.25;0.25;;;;;;;2.04;85.07;100398.50;1793940;78;21118;-43
2021/04/04 04:46:04;;;;;;;3.00;2.35;;;;;;;2.09;84.94;100402.16;1768104;79;21567;-41
2021/04/04 04:48:32;;;;;;;1.52;1.42;;;;;;;2.15;84.71;100401.78;1793973;78;21138;-42
2021/04/04 04:51:00;;;;;;;1.27;1.07;;;;;;;2.22;84.66;100405.76;1794252;79;21145;-41
2021/04/04 04:53:28;;;;;;;0.13;0.13;;;;;;;2.26;84.37;100404.27;1794286;78;21275;-41
2021/04/04 04:56:03;;;;;;;1.00;0.55;;;;;;;2.30;84.09;100406.30;1794247;79;21134;-42
2021/04/04 04:58:31;;;;;;;0.78;0.78;;;;;;;2.35;83.78;100402.39;1794104;78;21166;-44
2021/04/04 05:01:03;;;;;;;1.65;0.78;;;;;;;2.41;83.61;100404.70;1794211;79;21102;-41
2021/04/04 05:03:30;;;;;;;1.47;1.37;;;;;;;2.47;83.46;100406.48;1794125;78;21141;-42
2021/04/04 05:06:07;;;;;;;0.13;0.13;;;;;;;2.52;83.17;100405.30;1794001;79;21150;-41
2021/04/04 05:08:35;;;;;;;0.40;0.40;;;;;;;2.57;83.15;100406.78;1784202;78;21502;-42
2021/04/04 05:11:06;;;;;;;0.20;0.20;;;;;;;2.67;83.10;100409.44;1785187;80;21125;-41
2021/04/04 05:13:34;;;;;;;1.80;0.82;;;;;;;2.75;83.06;100419.94;1785188;78;21130;-42
2021/04/04 05:16:10;;;;;;;0.20;0.20;;;;;;;2.85;82.75;100425.61;1785254;80;21564;-42
2021/04/04 05:18:38;;;;;;;0.45;0.45;;;;;;;2.95;82.35;100432.63;1784926;78;21141;-42
2021/04/04 05:21:05;;;;;;;0.62;0.62;;;;;;;3.04;81.66;100431.75;1755146;80;21430;-41
2021/04/04 05:23:33;;;;;;;0.37;0.37;;;;;;;3.13;81.40;100437.66;1785418;79;21414;-42
2021/04/04 05:26:00;;;;;;;0.50;0.50;;;;;;;3.23;81.26;100443.33;1785346;80;21123;-42
2021/04/04 05:28:27;;;;;;;0.40;0.40;;;;;;;3.33;80.95;100432.77;1754981;78;21233;-43
2021/04/04 05:31:02;;;;;;;1.20;1.10;;;;;;;3.46;80.82;100437.14;1755236;80;21137;-41
2021/04/04 05:33:30;;;;;;;1.77;1.05;;;;;;;3.58;80.32;100427.70;1785382;78;21111;-42
2021/04/04 05:36:03;;;;;;;0.50;0.50;;;;;;;3.69;79.72;100429.61;1785289;80;21561;-42
2021/04/04 05:38:31;;;;;;;0.40;0.40;;;;;;;3.81;78.71;100440.43;1784950;78;20976;-41
2021/04/04 05:41:01;;;;;;;0.40;0.40;;;;;;;3.96;78.29;100438.60;1785085;80;21126;-43
2021/04/04 05:43:34;;;;;;;0.33;0.33;;;;;;;4.07;77.84;100433.70;1785024;78;21425;-45
2021/04/04 05:46:13;;;;;;;7.83;0.85;;;;;;;4.16;77.71;100429.58;1747487;80;21130;-46
2021/04/04 05:49:01;;;;;;;1.20;1.10;;;;;;;4.26;77.12;100431.15;1785340;79;21544;-44
2021/04/04 05:52:06;;;;;;;0.20;0.20;;;;;;;4.35;77.05;100438.89;1785348;80;21142;-44
2021/04/04 05:55:03;;;;;;;1.35;0.53;;;;;;;4.42;76.93;100430.11;1785454;78;21117;-44
2021/04/04 05:57:35;;;;;;;0.98;0.98;;;;;;;4.49;76.19;100434.86;1718674;80;21133;-43
2021/04/04 06:00:07;;;;;;;;;;;;;;;4.56;75.62;100440.96;1786445;79;21095;-45
2021/04/04 06:03:14;;;;;;;0.47;0.47;;;;;;;4.62;74.77;100440.53;1785433;80;20351;-44
2021/04/04 06:06:08;;;;;;;0.50;0.50;;;;;;;4.68;74.32;100434.98;1785503;80;20986;-44
2021/04/04 06:09:10;;;;;;;0.15;0.13;;;;;;;4.74;73.52;100438.06;1785316;78;21141;-41
2021/04/04 06:12:30;;;;;;;1.25;1.20;;;;;;;4.82;72.52;100450.93;1785460;80;21197;-41
2021/04/04 06:15:32;;;;;;;0.78;0.78;;;;;;;4.89;71.79;100446.20;1785521;78;21169;-42
2021/04/04 06:18:39;;;;;;;0.75;0.57;;;;;;;5.00;70.87;100441.81;1785463;80;21130;-41
2021/04/04 06:21:24;;;;;;;1.42;1.37;;;;;;;5.13;70.53;100446.92;1785418;80;21129;-41
2021/04/04 06:24:06;;;;;;;0.43;0.43;;;;;;;5.31;69.15;100443.17;1785125;78;21115;-43
2021/04/04 06:26:39;;;;;;;0.40;0.30;;;;;;;5.48;68.87;100441.83;1785544;80;21110;-41
2021/04/04 06:29:19;;;;;;;1.80;1.32;;;;;;;5.71;68.53;100444.91;1785506;78;21189;-43
2021/04/04 06:32:07;;;;;;;0.75;0.75;;;;;;;5.91;67.24;100450.66;1785557;80;21201;-41
2021/04/04 06:34:43;;;;;;;1.17;1.02;;;;;;;6.16;67.11;100446.70;1755416;80;21536;-41
2021/04/04 06:37:51;;;;;;;0.35;0.28;;;;;;;6.40;66.23;100449.45;1785183;80;21504;-42
2021/04/04 06:40:35;;;;;;;1.92;1.50;;;;;;;6.61;65.25;100442.94;1766171;80;21188;-42
2021/04/04 06:43:08;;;;;;;3.92;1.65;;;;;;;6.85;64.00;100444.31;1785116;80;21461;-42
2021/04/04 06:46:08;;;;;;;3.27;2.47;;;;;;;7.01;63.05;100444.47;1785218;80;21102;-41
2021/04/04 06:49:21;;;;;;;1.70;1.60;;;;;;;7.16;62.65;100441.91;1723550;80;21547;-42
2021/04/04 06:51:57;;;;;;;2.27;0.88;;;;;;;7.38;62.20;100443.74;1785322;80;21449;-42
2021/04/04 06:54:51;;;;;;;2.27;0.65;;;;;;;7.60;61.15;100445.84;1785043;79;21118;-42
2021/04/04 06:57:40;;;;;;;1.47;0.90;;;;;;;7.72;59.58;100445.12;1785262;80;21172;-43
2021/04/04 07:00:11;;;;;;;1.67;1.30;;;;;;;7.79;59.18;100447.63;1785444;79;21157;-42
2021/04/04 07:02:58;;;;;;;4.00;1.20;;;;;;;7.94;59.54;100447.73;1785369;80;21241;-41
2021/04/04 07:05:30;;;;;;;1.85;0.82;;;;;;;8.14;59.93;100450.30;1773093;80;21122;-41
2021/04/04 07:08:47;;;;;;;2.15;1.00;;;;;;;8.36;58.87;100449.61;1755552;80;21149;-42
2021/04/04 07:11:34;;;;;;;1.27;1.17;;;;;;;8.53;58.41;100450.81;1785396;80;21134;-46
2021/04/04 07:14:14;;;;;;;0.95;0.90;;;;;;;8.74;57.43;100449.52;1785159;78;21641;-46
2021/04/04 07:17:27;;;;;;;0.50;0.50;;;;;;;8.90;56.34;100453.11;1785076;80;21484;-46
2021/04/04 07:20:19;;;;;;;0.90;0.90;;;;;;;8.98;55.95;100453.97;1785148;79;21172;-46
2021/04/04 07:23:28;;;;;;;0.70;0.70;;;;;;;9.10;55.84;100452.34;1785226;80;21165;-46
2021/04/04 07:26:27;;;;;;;0.20;0.20;;;;;;;9.22;54.76;100455.63;1785303;80;21146;-45
2021/04/04 07:29:22;;;;;;;0.68;0.60;;;;;;;9.28;54.21;100454.56;1785223;79;21175;-46
2021/04/04 07:32:17;;;;;;;0.20;0.20;;;;;;;9.34;53.86;100457.56;1785400;80;21123;-46
2021/04/04 07:34:55;;;;;;;0.25;0.25;;;;;;;9.47;53.13;100454.31;1755374;80;21134;-45
2021/04/04 07:37:38;;;;;;;0.10;0.10;;;;;;;9.63;49.36;100450.22;1755271;80;21130;-47
2021/04/04 07:40:16;;;;;;;0.88;0.88;;;;;;;9.70;47.69;100453.50;1785495;78;21110;-45
2021/04/04 07:42:55;;;;;;;0.72;0.50;;;;;;;9.71;48.11;100455.13;1754819;80;21118;-45
2021/04/04 07:45:36;;;;;;;0.35;0.35;;;;;;;9.84;47.21;100455.95;1785096;79;21137;-45
2021/04/04 07:48:25;;;;;;;1.02;0.33;;;;;;;10.00;46.07;100454.56;1785326;80;21695;-45
2021/04/04 07:51:14;;;;;;;2.25;0.78;;;;;;;10.21;44.96;100456.17;1785336;80;21612;-46
2021/04/04 07:54:10;;;;;;;1.00;0.50;;;;;;;10.33;43.28;100453.95;1785482;78;21508;-41
2021/04/04 07:56:55;;;;;;;0.10;0.10;;;;;;;10.37;43.07;100452.06;1785361;80;21106;-42
2021/04/04 07:59:38;;;;;;;2.05;1.47;;;;;;;10.45;42.94;100454.21;1785224;78;21118;-41
2021/04/04 08:02:19;;;;;;;0.05;0.05;;;;;;;10.57;44.93;100451.98;1785538;80;21113;-42
2021/04/04 08:04:53;;;;;;;0.20;0.20;;;;;;;10.80;44.50;100453.80;1785397;79;21114;-41
2021/04/04 08:07:35;;;;;;;0.20;0.20;;;;;;;10.92;42.67;100448.26;1785427;80;21165;-42
2021/04/04 08:10:11;;;;;;;0.15;0.15;;;;;;;10.97;41.76;100447.42;1794042;78;21170;-41
2021/04/04 08:13:00;;;;;;;0.08;0.08;;;;;;;10.98;42.43;100448.52;1794175;79;21133;-42
2021/04/04 08:16:06;;;;;;;0.00;0.00;;;;;;;10.89;41.94;100439.27;1794500;78;21155;-41
2021/04/04 08:18:35;;;;;;;4.17;1.22;;;;;;;10.79;42.67;100445.34;1794250;78;21081;-41
2021/04/04 08:21:21;;;;;;;0.42;0.42;;;;;;;10.84;42.04;100444.75;1767553;79;21512;-42
2021/04/04 08:24:08;;;;;;;0.15;0.15;;;;;;;10.91;44.32;100439.80;1794272;78;21122;-41
2021/04/04 08:27:04;;;;;;;0.10;0.10;;;;;;;11.07;43.70;100443.25;1794346;79;21775;-41
2021/04/04 08:29:43;;;;;;;0.42;0.33;;;;;;;11.23;40.90;100431.68;1794284;78;21165;-42
2021/04/04 08:32:17;;;;;;;0.00;0.00;;;;;;;11.27;42.45;100436.83;1794092;79;21153;-42
2021/04/04 08:34:55;;;;;;;0.33;0.33;;;;;;;11.22;42.12;100434.69;1788698;78;21157;-41
2021/04/04 08:37:31;;;;;;;0.13;0.13;;;;;;;11.30;43.13;100432.70;1794464;79;21114;-42
2021/04/04 08:40:01;;;;;;;0.00;0.00;;;;;;;11.47;41.43;100427.65;1794351;78;21165;-43
2021/04/04 08:42:29;;;;;;;0.90;0.25;;;;;;;11.62;42.09;100432.18;1794348;79;21114;-41
2021/04/04 08:45:08;;;;;;;0.25;0.25;;;;;;;11.81;43.40;100426.27;1794183;78;21141;-42
2021/04/04 08:47:36;;;;;;;0.33;0.33;;;;;;;12.04;42.12;100422.52;1794299;79;21125;-42
2021/04/04 08:50:07;;;;;;;0.33;0.33;;;;;;;12.19;40.22;100418.80;1794373;78;21129;-42
2021/04/04 08:52:38;;;;;;;0.65;0.65;;;;;;;12.41;40.50;100419.64;1794314;79;21129;-42
2021/04/04 08:55:07;;;;;;;2.98;0.28;;;;;;;12.69;39.63;100420.69;1767760;79;21157;-42
2021/04/04 08:57:40;;;;;;;0.08;0.08;;;;;;;12.92;40.98;100409.39;1768112;79;21113;-43
2021/04/04 09:00:10;;;;;;;0.20;0.20;;;;;;;13.07;40.14;100405.61;1794255;78;21134;-41
2021/04/04 09:03:05;;;;;;;0.20;0.20;;;;;;;13.20;39.36;100399.36;1794185;79;21146;-42
2021/04/04 09:05:36;;;;;;;1.12;0.60;;;;;;;13.40;40.46;100388.68;1794374;79;21145;-42
2021/04/04 09:08:04;;;;;;;0.15;0.15;;;;;;;13.72;40.10;100394.72;1767296;79;21122;-42
2021/04/04 09:10:38;;;;;;;2.60;0.40;;;;;;;13.95;38.46;100387.99;1785028;80;21118;-42
2021/04/04 09:13:10;;;;;;;0.10;0.10;;;;;;;14.07;39.65;100395.71;1756035;78;21423;-42
2021/04/04 09:15:54;;;;;;;0.68;0.35;;;;;;;14.04;37.97;100396.33;1754202;80;21682;-41
2021/04/04 09:18:25;;;;;;;1.25;0.78;;;;;;;13.88;37.52;100389.75;1784896;79;21264;-42
2021/04/04 09:21:04;;;;;;;0.13;0.13;;;;;;;13.75;36.85;100385.87;1785074;80;21551;-42
2021/04/04 09:23:31;;;;;;;0.75;0.75;;;;;;;13.70;36.10;100392.83;1785011;79;21537;-42
2021/04/04 09:26:06;;;;;;;0.10;0.10;;;;;;;13.59;35.68;100389.98;1755194;80;21119;-42
2021/04/04 09:28:40;;;;;;;0.65;0.65;;;;;;;13.52;35.72;100388.19;1754813;80;21157;-43
2021/04/04 09:31:20;;;;;;;0.08;0.08;;;;;;;13.54;36.68;100381.84;1785167;80;21150;-42
2021/04/04 09:33:52;;;;;;;0.50;0.50;;;;;;;13.50;38.10;100387.13;1785104;78;21141;-41
2021/04/04 09:36:20;;;;;;;0.20;0.20;;;;;;;13.09;35.62;100385.56;1783777;80;21126;-42
2021/04/04 09:38:47;;;;;;;1.00;0.42;;;;;;;12.60;36.50;100386.24;1785185;78;21468;-41
2021/04/04 09:41:14;;;;;;;0.08;0.08;;;;;;;12.36;36.78;100384.89;1753655;80;21126;-42
2021/04/04 09:44:03;;;;;;;1.35;0.85;;;;;;;12.23;34.58;100388.35;1729531;80;21557;-41
2021/04/04 09:46:31;;;;;;;0.17;0.17;;;;;;;12.09;37.17;100378.67;1785238;80;21161;-42
2021/04/04 09:48:59;;;;;;;0.65;0.65;;;;;;;12.08;38.50;100384.42;1785014;78;21141;-43
2021/04/04 09:51:27;;;;;;;0.30;0.30;;;;;;;12.20;38.25;100390.31;1785270;80;21410;-42
2021/04/04 09:53:56;;;;;;;0.23;0.23;;;;;;;12.33;38.79;100381.94;1785189;79;21110;-43
2021/04/04 09:56:31;;;;;;;0.10;0.10;;;;;;;12.39;36.05;100382.96;1785099;80;21138;-46
2021/04/04 09:58:59;;;;;;;0.57;0.57;;;;;;;12.47;36.03;100385.04;1785236;79;21134;-42
2021/04/04 10:01:28;;;;;;;0.05;0.05;;;;;;;12.57;35.87;100384.66;1785260;80;21426;-42
2021/04/04 10:04:06;;;;;;;0.25;0.25;;;;;;;12.56;36.85;100389.86;1785137;78;21134;-41
2021/04/04 10:06:36;;;;;;;0.60;0.60;;;;;;;12.46;35.19;100388.06;1785226;80;21580;-41
2021/04/04 10:09:12;;;;;;;0.10;0.10;;;;;;;12.38;35.33;100384.05;1787723;78;21718;-42
2021/04/04 10:11:40;;;;;;;0.35;0.35;;;;;;;12.43;36.66;100380.44;1794044;79;21102;-42
2021/04/04 10:14:14;;;;;;;0.35;0.35;;;;;;;12.51;36.47;100389.92;1793965;78;21540;-42
2021/04/04 10:16:43;;;;;;;0.30;0.30;;;;;;;12.53;36.63;100389.89;1794231;79;21113;-42
2021/04/04 10:19:18;;;;;;;0.75;0.10;;;;;;;12.47;36.44;100392.45;1793961;78;21157;-43
2021/04/04 10:21:56;;;;;;;0.25;0.25;;;;;;;12.38;36.20;100402.42;1794092;79;21541;-42
2021/04/04 10:24:33;;;;;;;1.20;0.60;;;;;;;12.24;38.17;100400.96;1793892;78;21165;-42
2021/04/04 10:27:26;;;;;;;0.40;0.40;;;;;;;11.87;40.16;100406.55;1794086;79;21109;-42
2021/04/04 10:30:17;;;;;;;1.77;1.62;;;;;;;11.48;42.46;100409.34;1794147;78;21133;-42
2021/04/04 10:32:48;;;;;;;0.60;0.50;;;;;;;11.07;43.86;100411.80;1794063;79;21145;-41
2021/04/04 10:35:35;;;;;;;0.15;0.15;;;;;;;10.76;44.97;100417.47;1794034;78;21640;-44
2021/04/04 10:38:08;;;;;;;0.68;0.68;;;;;;;10.51;45.64;100425.23;1794154;79;21118;-42
2021/04/04 10:40:58;;;;;;;0.30;0.30;;;;;;;10.22;46.69;100427.76;1793370;79;21127;-41
2021/04/04 10:43:38;;;;;;;0.08;0.05;;;;;;;10.05;47.58;100429.98;1794153;78;21213;-42
2021/04/04 10:46:12;;;;;;;0.08;0.08;;;;;;;9.92;48.38;100430.56;1794197;79;21933;-42
2021/04/04 10:48:47;;;;;;;0.30;0.30;;;;;;;9.86;48.42;100437.92;1793048;78;21150;-44
2021/04/04 10:51:17;;;;;;;1.15;0.90;;;;;;;9.86;48.39;100439.28;1788715;79;21450;-42
2021/04/04 10:53:45;;;;;;;0.28;0.20;;;;;;;9.92;48.39;100440.12;1788548;78;21856;-43
2021/04/04 10:56:13;;;;;;;0.98;0.95;;;;;;;9.99;47.98;100439.27;1787843;79;21134;-42
2021/04/04 10:58:41;;;;;;;0.45;0.20;;;;;;;10.05;47.00;100429.43;1784376;78;21138;-42
2021/04/04 11:01:11;;;;;;;0.40;0.33;;;;;;;10.08;47.07;100438.98;1788608;78;21133;-43
2021/04/04 11:03:40;;;;;;;0.10;0.10;;;;;;;10.11;47.11;100433.80;1788977;79;21141;-45
2021/04/04 11:06:08;;;;;;;1.52;0.40;;;;;;;10.15;48.86;100443.61;1794219;78;21114;-43
2021/04/04 11:08:36;;;;;;;0.20;0.20;;;;;;;10.15;48.73;100434.61;1794136;78;21153;-43
2021/04/04 11:11:05;;;;;;;0.60;0.47;;;;;;;10.13;47.65;100434.88;1795894;79;21802;-42
2021/04/04 11:13:33;;;;;;;2.47;0.42;;;;;;;10.15;47.62;100438.15;1785666;79;21600;-41
2021/04/04 11:16:07;;;;;;;0.90;0.25;;;;;;;10.23;47.19;100439.48;1761021;80;21125;-42
2021/04/04 11:18:49;;;;;;;0.00;0.00;;;;;;;10.31;46.37;100434.84;1729028;81;21138;-43
2021/04/04 11:21:30;;;;;;;2.10;0.42;;;;;;;10.38;45.71;100431.83;1708673;82;21180;-43
2021/04/04 11:23:58;;;;;;;2.75;0.23;;;;;;;10.52;44.48;100432.32;1719914;83;21166;-42
2021/04/04 11:26:30;;;;;;;0.37;0.37;;;;;;;10.68;43.84;100434.98;1690004;81;21159;-43
2021/04/04 11:29:20;;;;;;;0.10;0.10;;;;;;;10.76;43.24;100435.23;1724928;80;21927;-42
2021/04/04 11:31:59;;;;;;;0.37;0.37;;;;;;;10.79;44.74;100435.77;1710596;82;21434;-43
2021/04/04 11:34:32;;;;;;;0.75;0.57;;;;;;;10.80;45.93;100434.66;1713566;83;21144;-43
2021/04/04 11:37:13;;;;;;;0.57;0.50;;;;;;;10.79;45.58;100429.75;1694063;83;21142;-42
2021/04/04 11:40:04;;;;;;;0.28;0.28;;;;;;;10.80;46.60;100431.92;1740447;81;21131;-43
2021/04/04 11:42:32;;;;;;;0.25;0.23;;;;;;;10.81;47.27;100426.19;1750620;81;21124;-42
2021/04/04 11:44:59;;;;;;;0.70;0.70;;;;;;;10.85;47.74;100421.78;1721228;81;21127;-43
2021/04/04 11:47:28;;;;;;;0.10;0.10;;;;;;;10.85;48.21;100426.44;1749603;80;21143;-42
2021/04/04 11:49:57;;;;;;;0.10;0.10;;;;;;;10.83;48.10;100420.42;1746363;81;21142;-43
2021/04/04 11:52:35;;;;;;;0.15;0.15;;;;;;;10.86;47.99;100423.98;1745291;81;21196;-42
2021/04/04 11:55:03;;;;;;;1.70;1.50;;;;;;;10.90;47.36;100416.83;1747744;81;21110;-41
2021/04/04 11:57:36;;;;;;;0.65;0.42;;;;;;;10.95;47.32;100418.17;1774427;80;21544;-42
2021/04/04 12:00:19;;;;;;;0.72;0.65;;;;;;;11.02;47.23;100415.94;1769620;80;21415;-43
2021/04/04 12:02:59;;;;;;;0.10;0.10;;;;;;;11.25;47.19;100416.33;1727732;82;21150;-43
2021/04/04 12:05:32;;;;;;;0.10;0.10;;;;;;;11.73;47.76;100406.37;1737644;82;21157;-43
2021/04/04 12:07:59;;;;;;;0.47;0.47;;;;;;;12.28;45.89;100403.36;1737742;82;21189;-42
2021/04/04 12:10:37;;;;;;;0.13;0.13;;;;;;;12.72;45.03;100389.92;1738717;81;21138;-42